sensor_id;sensor_type;location;lat;lon;timestamp;temperature;humidity
19870;DHT22;10097;50.862;4.696;2023-03-14T00:01:51;12.60;99.90
19870;DHT22;10097;50.862;4.696;2023-03-14T00:04:17;12.60;99.90
19870;DHT22;10097;50.862;4.696;2023-03-14T00:06:43;12.70;99.90
19870;DHT22;10097;50.862;4.696;2023-03-14T00:09:13;12.80;99.90
19870;DHT22;10097;50.862;4.696;2023-03-14T00:11:39;12.80;99.90
19870;DHT22;10097;50.862;4.696;2023-03-14T00:14:07;12.70;99.90
19870;DHT22;10097;50.862;4.696;2023-03-14T00:16:32;12.60;99.90
19870;DHT22;10097;50.862;4.696;2023-03-14T00:18:59;12.50;99.90
19870;DHT22;10097;50.862;4.696;2023-03-14T00:21:26;12.40;99.90
19870;DHT22;10097;50.862;4.696;2023-03-14T00:23:54;12.30;99.90
19870;DHT22;10097;50.862;4.696;2023-03-14T00:26:22;12.40;99.90
19870;DHT22;10097;50.862;4.696;2023-03-14T00:28:51;12.40;99.90
19870;DHT22;10097;50.862;4.696;2023-03-14T00:31:20;12.40;99.90
19870;DHT22;10097;50.862;4.696;2023-03-14T00:33:46;12.30;99.90
19870;DHT22;10097;50.862;4.696;2023-03-14T00:36:15;12.40;99.90
19870;DHT22;10097;50.862;4.696;2023-03-14T00:38:44;12.30;99.90
19870;DHT22;10097;50.862;4.696;2023-03-14T00:41:14;12.30;99.90
19870;DHT22;10097;50.862;4.696;2023-03-14T00:43:42;12.30;99.90
19870;DHT22;10097;50.862;4.696;2023-03-14T00:46:08;12.30;99.90
19870;DHT22;10097;50.862;4.696;2023-03-14T00:48:34;12.30;99.90
19870;DHT22;10097;50.862;4.696;2023-03-14T00:51:05;12.40;99.90
19870;DHT22;10097;50.862;4.696;2023-03-14T00:53:35;12.50;99.90
19870;DHT22;10097;50.862;4.696;2023-03-14T00:56:05;12.40;99.90
19870;DHT22;10097;50.862;4.696;2023-03-14T00:58:31;12.40;99.90
19870;DHT22;10097;50.862;4.696;2023-03-14T01:00:57;12.50;99.90
19870;DHT22;10097;50.862;4.696;2023-03-14T01:03:25;12.60;99.90
19870;DHT22;10097;50.862;4.696;2023-03-14T01:05:50;12.60;99.90
19870;DHT22;10097;50.862;4.696;2023-03-14T01:08:17;12.50;99.90
19870;DHT22;10097;50.862;4.696;2023-03-14T01:10:43;12.60;99.90
19870;DHT22;10097;50.862;4.696;2023-03-14T01:13:09;12.70;99.90
19870;DHT22;10097;50.862;4.696;2023-03-14T01:15:36;12.50;99.90
19870;DHT22;10097;50.862;4.696;2023-03-14T01:18:04;12.50;99.90
19870;DHT22;10097;50.862;4.696;2023-03-14T01:20:32;12.40;99.90
19870;DHT22;10097;50.862;4.696;2023-03-14T01:22:59;12.40;99.90
19870;DHT22;10097;50.862;4.696;2023-03-14T01:25:25;12.50;99.90
19870;DHT22;10097;50.862;4.696;2023-03-14T01:27:50;12.50;99.90
19870;DHT22;10097;50.862;4.696;2023-03-14T01:30:17;12.40;99.90
19870;DHT22;10097;50.862;4.696;2023-03-14T01:32:43;12.40;99.90
19870;DHT22;10097;50.862;4.696;2023-03-14T01:35:10;12.40;99.90
19870;DHT22;10097;50.862;4.696;2023-03-14T01:37:36;12.30;99.90
19870;DHT22;10097;50.862;4.696;2023-03-14T01:40:02;12.30;99.90
19870;DHT22;10097;50.862;4.696;2023-03-14T01:42:29;12.30;99.90
19870;DHT22;10097;50.862;4.696;2023-03-14T01:44:57;12.20;99.90
19870;DHT22;10097;50.862;4.696;2023-03-14T01:47:23;12.10;99.90
19870;DHT22;10097;50.862;4.696;2023-03-14T01:50:11;12.00;99.90
19870;DHT22;10097;50.862;4.696;2023-03-14T01:52:48;11.90;99.90
19870;DHT22;10097;50.862;4.696;2023-03-14T01:55:27;11.80;99.90
19870;DHT22;10097;50.862;4.696;2023-03-14T01:58:01;11.70;99.90
19870;DHT22;10097;50.862;4.696;2023-03-14T02:00:34;11.70;99.90
19870;DHT22;10097;50.862;4.696;2023-03-14T02:03:07;11.60;99.90
19870;DHT22;10097;50.862;4.696;2023-03-14T02:05:38;11.60;99.90
19870;DHT22;10097;50.862;4.696;2023-03-14T02:08:08;11.60;99.90
19870;DHT22;10097;50.862;4.696;2023-03-14T02:10:44;11.50;99.90
19870;DHT22;10097;50.862;4.696;2023-03-14T02:13:10;11.30;99.90
19870;DHT22;10097;50.862;4.696;2023-03-14T02:15:38;11.10;99.90
19870;DHT22;10097;50.862;4.696;2023-03-14T02:18:05;11.00;99.90
19870;DHT22;10097;50.862;4.696;2023-03-14T02:21:08;10.90;99.90
19870;DHT22;10097;50.862;4.696;2023-03-14T02:27:17;10.80;99.90
19870;DHT22;10097;50.862;4.696;2023-03-14T02:32:33;10.60;99.90
19870;DHT22;10097;50.862;4.696;2023-03-14T02:35:04;10.50;99.90
19870;DHT22;10097;50.862;4.696;2023-03-14T02:37:48;10.50;99.90
19870;DHT22;10097;50.862;4.696;2023-03-14T02:40:25;10.50;99.90
19870;DHT22;10097;50.862;4.696;2023-03-14T02:43:00;10.40;99.90
19870;DHT22;10097;50.862;4.696;2023-03-14T02:45:44;10.40;99.90
19870;DHT22;10097;50.862;4.696;2023-03-14T02:48:25;10.50;99.90
19870;DHT22;10097;50.862;4.696;2023-03-14T02:51:10;10.40;99.90
19870;DHT22;10097;50.862;4.696;2023-03-14T02:53:40;10.50;99.90
19870;DHT22;10097;50.862;4.696;2023-03-14T02:56:09;10.60;99.90
19870;DHT22;10097;50.862;4.696;2023-03-14T02:58:40;10.60;99.90
19870;DHT22;10097;50.862;4.696;2023-03-14T03:01:16;10.70;99.90
19870;DHT22;10097;50.862;4.696;2023-03-14T03:03:43;10.60;99.90
19870;DHT22;10097;50.862;4.696;2023-03-14T03:06:12;10.70;99.90
19870;DHT22;10097;50.862;4.696;2023-03-14T03:08:40;10.70;99.90
19870;DHT22;10097;50.862;4.696;2023-03-14T03:11:08;10.80;99.90
19870;DHT22;10097;50.862;4.696;2023-03-14T03:13:35;10.80;99.90
19870;DHT22;10097;50.862;4.696;2023-03-14T03:16:06;10.60;99.90
19870;DHT22;10097;50.862;4.696;2023-03-14T03:18:32;10.60;99.90
19870;DHT22;10097;50.862;4.696;2023-03-14T03:21:07;10.70;99.90
19870;DHT22;10097;50.862;4.696;2023-03-14T03:23:34;10.80;99.90
19870;DHT22;10097;50.862;4.696;2023-03-14T03:26:00;10.80;99.90
19870;DHT22;10097;50.862;4.696;2023-03-14T03:28:26;10.70;99.90
19870;DHT22;10097;50.862;4.696;2023-03-14T03:30:52;10.60;99.90
19870;DHT22;10097;50.862;4.696;2023-03-14T03:33:19;10.70;99.90
19870;DHT22;10097;50.862;4.696;2023-03-14T03:35:48;10.80;99.90
19870;DHT22;10097;50.862;4.696;2023-03-14T03:38:15;10.90;99.90
19870;DHT22;10097;50.862;4.696;2023-03-14T03:40:42;10.80;99.90
19870;DHT22;10097;50.862;4.696;2023-03-14T03:43:08;10.80;99.90
19870;DHT22;10097;50.862;4.696;2023-03-14T03:45:36;10.80;99.90
19870;DHT22;10097;50.862;4.696;2023-03-14T03:48:04;10.70;99.90
19870;DHT22;10097;50.862;4.696;2023-03-14T03:50:29;10.70;99.90
19870;DHT22;10097;50.862;4.696;2023-03-14T03:53:00;10.80;99.90
19870;DHT22;10097;50.862;4.696;2023-03-14T03:55:26;10.80;99.90
19870;DHT22;10097;50.862;4.696;2023-03-14T03:57:53;10.80;99.90
19870;DHT22;10097;50.862;4.696;2023-03-14T04:00:20;10.80;99.90
19870;DHT22;10097;50.862;4.696;2023-03-14T04:02:46;10.80;99.90
19870;DHT22;10097;50.862;4.696;2023-03-14T04:05:12;10.80;99.90
19870;DHT22;10097;50.862;4.696;2023-03-14T04:07:39;10.80;99.90
19870;DHT22;10097;50.862;4.696;2023-03-14T04:10:05;10.80;99.90
19870;DHT22;10097;50.862;4.696;2023-03-14T04:12:30;10.70;99.90
19870;DHT22;10097;50.862;4.696;2023-03-14T04:14:56;10.80;99.90
19870;DHT22;10097;50.862;4.696;2023-03-14T04:17:22;10.70;99.90
19870;DHT22;10097;50.862;4.696;2023-03-14T04:19:48;10.70;99.90
19870;DHT22;10097;50.862;4.696;2023-03-14T04:22:16;10.60;99.90
19870;DHT22;10097;50.862;4.696;2023-03-14T04:24:42;10.60;99.90
19870;DHT22;10097;50.862;4.696;2023-03-14T04:27:07;10.60;99.90
19870;DHT22;10097;50.862;4.696;2023-03-14T04:29:33;10.70;99.90
19870;DHT22;10097;50.862;4.696;2023-03-14T04:31:59;10.80;99.90
19870;DHT22;10097;50.862;4.696;2023-03-14T04:34:24;10.70;99.90
19870;DHT22;10097;50.862;4.696;2023-03-14T04:36:50;10.80;99.90
19870;DHT22;10097;50.862;4.696;2023-03-14T04:39:16;10.80;99.90
19870;DHT22;10097;50.862;4.696;2023-03-14T04:41:41;10.70;99.90
19870;DHT22;10097;50.862;4.696;2023-03-14T04:44:07;10.80;99.90
19870;DHT22;10097;50.862;4.696;2023-03-14T04:46:33;10.80;99.90
19870;DHT22;10097;50.862;4.696;2023-03-14T04:48:58;10.80;99.90
19870;DHT22;10097;50.862;4.696;2023-03-14T04:51:25;10.80;99.90
19870;DHT22;10097;50.862;4.696;2023-03-14T04:53:53;10.80;99.90
19870;DHT22;10097;50.862;4.696;2023-03-14T04:56:20;10.80;99.90
19870;DHT22;10097;50.862;4.696;2023-03-14T04:58:46;10.80;99.90
19870;DHT22;10097;50.862;4.696;2023-03-14T05:01:12;10.90;99.90
19870;DHT22;10097;50.862;4.696;2023-03-14T05:03:37;10.90;99.90
19870;DHT22;10097;50.862;4.696;2023-03-14T05:06:04;10.90;99.90
19870;DHT22;10097;50.862;4.696;2023-03-14T05:08:30;10.90;99.90
19870;DHT22;10097;50.862;4.696;2023-03-14T05:10:57;10.90;99.90
19870;DHT22;10097;50.862;4.696;2023-03-14T05:13:23;10.90;99.90
19870;DHT22;10097;50.862;4.696;2023-03-14T05:15:49;10.80;99.90
19870;DHT22;10097;50.862;4.696;2023-03-14T05:18:16;10.90;99.90
19870;DHT22;10097;50.862;4.696;2023-03-14T05:20:42;10.90;99.90
19870;DHT22;10097;50.862;4.696;2023-03-14T05:23:10;10.90;99.90
19870;DHT22;10097;50.862;4.696;2023-03-14T05:25:36;11.00;99.90
19870;DHT22;10097;50.862;4.696;2023-03-14T05:28:02;10.90;99.90
19870;DHT22;10097;50.862;4.696;2023-03-14T05:30:28;10.90;99.90
19870;DHT22;10097;50.862;4.696;2023-03-14T05:32:54;10.90;99.90
19870;DHT22;10097;50.862;4.696;2023-03-14T05:35:19;10.90;99.90
19870;DHT22;10097;50.862;4.696;2023-03-14T05:37:46;10.90;99.90
19870;DHT22;10097;50.862;4.696;2023-03-14T05:40:12;10.90;99.90
19870;DHT22;10097;50.862;4.696;2023-03-14T05:42:38;10.90;99.90
19870;DHT22;10097;50.862;4.696;2023-03-14T05:45:05;10.90;99.90
19870;DHT22;10097;50.862;4.696;2023-03-14T05:47:35;10.90;99.90
19870;DHT22;10097;50.862;4.696;2023-03-14T05:50:01;10.90;99.90
19870;DHT22;10097;50.862;4.696;2023-03-14T05:52:36;11.00;99.90
19870;DHT22;10097;50.862;4.696;2023-03-14T05:55:02;11.00;99.90
19870;DHT22;10097;50.862;4.696;2023-03-14T05:57:27;11.00;99.90
19870;DHT22;10097;50.862;4.696;2023-03-14T05:59:54;10.90;99.90
19870;DHT22;10097;50.862;4.696;2023-03-14T06:02:21;11.00;99.90
19870;DHT22;10097;50.862;4.696;2023-03-14T06:04:46;11.00;99.90
19870;DHT22;10097;50.862;4.696;2023-03-14T06:07:13;11.10;99.90
19870;DHT22;10097;50.862;4.696;2023-03-14T06:09:39;11.10;99.90
19870;DHT22;10097;50.862;4.696;2023-03-14T06:12:05;11.10;99.90
19870;DHT22;10097;50.862;4.696;2023-03-14T06:14:32;11.10;99.90
19870;DHT22;10097;50.862;4.696;2023-03-14T06:16:57;11.00;99.90
19870;DHT22;10097;50.862;4.696;2023-03-14T06:19:25;10.90;99.90
19870;DHT22;10097;50.862;4.696;2023-03-14T06:21:58;10.90;99.90
19870;DHT22;10097;50.862;4.696;2023-03-14T06:24:32;11.00;99.90
19870;DHT22;10097;50.862;4.696;2023-03-14T06:26:58;10.90;99.90
19870;DHT22;10097;50.862;4.696;2023-03-14T06:29:24;10.90;99.90
19870;DHT22;10097;50.862;4.696;2023-03-14T06:31:50;11.00;99.90
19870;DHT22;10097;50.862;4.696;2023-03-14T06:34:16;11.00;99.90
19870;DHT22;10097;50.862;4.696;2023-03-14T06:36:42;11.00;99.90
19870;DHT22;10097;50.862;4.696;2023-03-14T06:39:09;11.00;99.90
19870;DHT22;10097;50.862;4.696;2023-03-14T06:41:42;11.10;99.90
19870;DHT22;10097;50.862;4.696;2023-03-14T06:44:08;11.10;99.90
19870;DHT22;10097;50.862;4.696;2023-03-14T06:46:39;11.10;99.90
19870;DHT22;10097;50.862;4.696;2023-03-14T06:49:07;11.00;99.90
19870;DHT22;10097;50.862;4.696;2023-03-14T06:51:33;11.00;99.90
19870;DHT22;10097;50.862;4.696;2023-03-14T06:54:01;10.90;99.90
19870;DHT22;10097;50.862;4.696;2023-03-14T06:56:27;11.00;99.90
19870;DHT22;10097;50.862;4.696;2023-03-14T06:58:52;11.10;99.90
19870;DHT22;10097;50.862;4.696;2023-03-14T07:01:24;11.00;99.90
19870;DHT22;10097;50.862;4.696;2023-03-14T07:03:50;11.00;99.90
19870;DHT22;10097;50.862;4.696;2023-03-14T07:06:16;11.10;99.90
19870;DHT22;10097;50.862;4.696;2023-03-14T07:08:42;11.10;99.90
19870;DHT22;10097;50.862;4.696;2023-03-14T07:11:12;11.00;99.90
19870;DHT22;10097;50.862;4.696;2023-03-14T07:13:39;10.60;99.90
19870;DHT22;10097;50.862;4.696;2023-03-14T07:16:20;10.10;99.90
19870;DHT22;10097;50.862;4.696;2023-03-14T07:18:48;9.40;99.90
19870;DHT22;10097;50.862;4.696;2023-03-14T07:21:14;9.00;99.90
19870;DHT22;10097;50.862;4.696;2023-03-14T07:23:41;8.70;99.90
19870;DHT22;10097;50.862;4.696;2023-03-14T07:26:08;8.40;99.90
19870;DHT22;10097;50.862;4.696;2023-03-14T07:28:35;8.20;99.90
19870;DHT22;10097;50.862;4.696;2023-03-14T07:31:03;8.10;99.90
19870;DHT22;10097;50.862;4.696;2023-03-14T07:33:29;8.00;99.90
19870;DHT22;10097;50.862;4.696;2023-03-14T07:35:55;8.00;99.90
19870;DHT22;10097;50.862;4.696;2023-03-14T07:38:21;7.90;99.90
19870;DHT22;10097;50.862;4.696;2023-03-14T07:40:47;7.70;99.90
19870;DHT22;10097;50.862;4.696;2023-03-14T07:43:13;7.60;99.90
19870;DHT22;10097;50.862;4.696;2023-03-14T07:45:40;7.50;99.90
19870;DHT22;10097;50.862;4.696;2023-03-14T07:48:08;7.50;99.90
19870;DHT22;10097;50.862;4.696;2023-03-14T07:50:33;7.50;99.90
19870;DHT22;10097;50.862;4.696;2023-03-14T07:53:08;7.50;99.90
19870;DHT22;10097;50.862;4.696;2023-03-14T07:55:34;7.60;99.90
19870;DHT22;10097;50.862;4.696;2023-03-14T07:57:59;7.60;99.90
19870;DHT22;10097;50.862;4.696;2023-03-14T08:00:27;7.60;99.90
19870;DHT22;10097;50.862;4.696;2023-03-14T08:02:53;7.60;99.90
19870;DHT22;10097;50.862;4.696;2023-03-14T08:05:18;7.60;99.90
19870;DHT22;10097;50.862;4.696;2023-03-14T08:07:44;7.70;99.90
19870;DHT22;10097;50.862;4.696;2023-03-14T08:10:10;7.80;99.90
19870;DHT22;10097;50.862;4.696;2023-03-14T08:12:36;7.90;99.90
19870;DHT22;10097;50.862;4.696;2023-03-14T08:15:01;7.90;99.90
19870;DHT22;10097;50.862;4.696;2023-03-14T08:17:27;7.90;99.90
19870;DHT22;10097;50.862;4.696;2023-03-14T08:19:53;7.80;99.90
19870;DHT22;10097;50.862;4.696;2023-03-14T08:22:19;7.90;99.90
19870;DHT22;10097;50.862;4.696;2023-03-14T08:24:44;7.80;99.90
19870;DHT22;10097;50.862;4.696;2023-03-14T08:27:10;7.80;99.90
19870;DHT22;10097;50.862;4.696;2023-03-14T08:29:35;7.90;99.90
19870;DHT22;10097;50.862;4.696;2023-03-14T08:32:01;7.90;99.90
19870;DHT22;10097;50.862;4.696;2023-03-14T08:34:27;7.90;99.90
19870;DHT22;10097;50.862;4.696;2023-03-14T08:36:53;7.90;99.90
19870;DHT22;10097;50.862;4.696;2023-03-14T08:39:20;7.90;99.90
19870;DHT22;10097;50.862;4.696;2023-03-14T08:41:49;7.80;99.90
19870;DHT22;10097;50.862;4.696;2023-03-14T08:44:15;7.70;99.90
19870;DHT22;10097;50.862;4.696;2023-03-14T08:46:40;7.70;99.90
19870;DHT22;10097;50.862;4.696;2023-03-14T08:49:06;7.80;99.90
19870;DHT22;10097;50.862;4.696;2023-03-14T08:51:32;7.90;99.90
19870;DHT22;10097;50.862;4.696;2023-03-14T08:53:57;8.00;99.90
19870;DHT22;10097;50.862;4.696;2023-03-14T08:56:23;8.10;99.90
19870;DHT22;10097;50.862;4.696;2023-03-14T08:58:49;8.10;99.90
19870;DHT22;10097;50.862;4.696;2023-03-14T09:01:14;8.00;99.90
19870;DHT22;10097;50.862;4.696;2023-03-14T09:03:40;7.90;99.90
19870;DHT22;10097;50.862;4.696;2023-03-14T09:06:08;7.60;99.90
19870;DHT22;10097;50.862;4.696;2023-03-14T09:08:35;7.50;99.90
19870;DHT22;10097;50.862;4.696;2023-03-14T09:11:01;7.60;99.90
19870;DHT22;10097;50.862;4.696;2023-03-14T09:13:27;7.70;99.90
19870;DHT22;10097;50.862;4.696;2023-03-14T09:15:53;7.80;99.90
19870;DHT22;10097;50.862;4.696;2023-03-14T09:18:21;7.80;99.90
19870;DHT22;10097;50.862;4.696;2023-03-14T09:20:48;7.80;99.90
19870;DHT22;10097;50.862;4.696;2023-03-14T09:23:14;7.80;99.90
19870;DHT22;10097;50.862;4.696;2023-03-14T09:25:40;7.80;99.90
19870;DHT22;10097;50.862;4.696;2023-03-14T09:28:06;7.80;99.90
19870;DHT22;10097;50.862;4.696;2023-03-14T09:30:32;7.80;99.90
19870;DHT22;10097;50.862;4.696;2023-03-14T09:32:59;7.80;99.90
19870;DHT22;10097;50.862;4.696;2023-03-14T09:35:26;7.90;99.90
19870;DHT22;10097;50.862;4.696;2023-03-14T09:37:52;8.00;99.90
19870;DHT22;10097;50.862;4.696;2023-03-14T09:40:18;7.90;99.90
19870;DHT22;10097;50.862;4.696;2023-03-14T09:42:48;7.80;99.90
19870;DHT22;10097;50.862;4.696;2023-03-14T09:45:25;7.70;99.90
19870;DHT22;10097;50.862;4.696;2023-03-14T09:47:52;7.70;99.90
19870;DHT22;10097;50.862;4.696;2023-03-14T09:50:19;7.60;99.90
19870;DHT22;10097;50.862;4.696;2023-03-14T09:52:58;7.50;99.90
19870;DHT22;10097;50.862;4.696;2023-03-14T09:55:25;7.50;99.90
19870;DHT22;10097;50.862;4.696;2023-03-14T09:57:56;7.50;99.90
19870;DHT22;10097;50.862;4.696;2023-03-14T10:00:25;7.40;99.90
19870;DHT22;10097;50.862;4.696;2023-03-14T10:03:05;7.40;99.90
19870;DHT22;10097;50.862;4.696;2023-03-14T10:05:32;7.40;99.90
19870;DHT22;10097;50.862;4.696;2023-03-14T10:08:05;7.30;99.90
19870;DHT22;10097;50.862;4.696;2023-03-14T10:10:32;7.40;99.90
19870;DHT22;10097;50.862;4.696;2023-03-14T10:15:42;7.30;99.90
19870;DHT22;10097;50.862;4.696;2023-03-14T10:18:13;7.40;99.90
19870;DHT22;10097;50.862;4.696;2023-03-14T10:20:41;7.60;99.90
19870;DHT22;10097;50.862;4.696;2023-03-14T10:25:42;7.80;99.90
19870;DHT22;10097;50.862;4.696;2023-03-14T10:30:49;7.70;99.90
19870;DHT22;10097;50.862;4.696;2023-03-14T10:33:28;7.60;99.90
19870;DHT22;10097;50.862;4.696;2023-03-14T10:35:59;7.40;99.90
19870;DHT22;10097;50.862;4.696;2023-03-14T10:38:28;7.20;99.90
19870;DHT22;10097;50.862;4.696;2023-03-14T10:40:55;7.10;99.90
19870;DHT22;10097;50.862;4.696;2023-03-14T10:43:32;6.90;99.90
19870;DHT22;10097;50.862;4.696;2023-03-14T10:46:09;6.90;99.90
19870;DHT22;10097;50.862;4.696;2023-03-14T10:48:38;6.80;99.90
19870;DHT22;10097;50.862;4.696;2023-03-14T10:53:47;6.60;99.90
19870;DHT22;10097;50.862;4.696;2023-03-14T10:56:22;6.60;99.90
19870;DHT22;10097;50.862;4.696;2023-03-14T10:58:52;6.50;99.90
19870;DHT22;10097;50.862;4.696;2023-03-14T11:07:43;6.80;99.90
19870;DHT22;10097;50.862;4.696;2023-03-14T11:10:33;6.90;99.90
19870;DHT22;10097;50.862;4.696;2023-03-14T11:27:28;6.40;99.90
19870;DHT22;10097;50.862;4.696;2023-03-14T11:30:30;6.30;99.90
19870;DHT22;10097;50.862;4.696;2023-03-14T11:33:08;6.40;99.90
19870;DHT22;10097;50.862;4.696;2023-03-14T11:36:08;6.40;99.90
19870;DHT22;10097;50.862;4.696;2023-03-14T11:38:47;6.40;99.90
19870;DHT22;10097;50.862;4.696;2023-03-14T11:44:10;6.50;99.90
19870;DHT22;10097;50.862;4.696;2023-03-14T11:46:44;6.80;99.90
19870;DHT22;10097;50.862;4.696;2023-03-14T11:51:51;7.10;99.90
19870;DHT22;10097;50.862;4.696;2023-03-14T11:57:03;7.20;99.90
19870;DHT22;10097;50.862;4.696;2023-03-14T12:03:06;7.20;99.90
19870;DHT22;10097;50.862;4.696;2023-03-14T12:13:57;7.20;99.90
19870;DHT22;10097;50.862;4.696;2023-03-14T12:18:49;7.20;99.90
19870;DHT22;10097;50.862;4.696;2023-03-14T12:21:15;7.20;99.90
19870;DHT22;10097;50.862;4.696;2023-03-14T12:23:44;7.40;99.90
19870;DHT22;10097;50.862;4.696;2023-03-14T12:28:37;7.60;99.90
19870;DHT22;10097;50.862;4.696;2023-03-14T12:31:36;7.50;99.90
19870;DHT22;10097;50.862;4.696;2023-03-14T12:50:36;6.90;99.90
19870;DHT22;10097;50.862;4.696;2023-03-14T13:01:55;6.70;99.90
19870;DHT22;10097;50.862;4.696;2023-03-14T13:04:28;6.70;99.90
19870;DHT22;10097;50.862;4.696;2023-03-14T13:06:59;6.80;99.90
19870;DHT22;10097;50.862;4.696;2023-03-14T13:11:53;6.90;99.90
19870;DHT22;10097;50.862;4.696;2023-03-14T13:14:19;7.00;99.90
19870;DHT22;10097;50.862;4.696;2023-03-14T13:16:47;7.30;99.90
19870;DHT22;10097;50.862;4.696;2023-03-14T13:19:19;7.50;99.90
19870;DHT22;10097;50.862;4.696;2023-03-14T13:21:47;7.70;99.90
19870;DHT22;10097;50.862;4.696;2023-03-14T13:24:26;7.80;99.90
19870;DHT22;10097;50.862;4.696;2023-03-14T13:26:54;7.60;99.90
19870;DHT22;10097;50.862;4.696;2023-03-14T13:31:54;7.60;99.90
19870;DHT22;10097;50.862;4.696;2023-03-14T13:34:25;7.60;99.90
19870;DHT22;10097;50.862;4.696;2023-03-14T13:36:54;7.60;99.90
19870;DHT22;10097;50.862;4.696;2023-03-14T13:39:23;7.50;99.90
19870;DHT22;10097;50.862;4.696;2023-03-14T13:41:51;7.50;99.90
19870;DHT22;10097;50.862;4.696;2023-03-14T13:44:39;7.20;99.90
19870;DHT22;10097;50.862;4.696;2023-03-14T13:47:10;6.90;99.90
19870;DHT22;10097;50.862;4.696;2023-03-14T13:49:39;6.40;99.90
19870;DHT22;10097;50.862;4.696;2023-03-14T13:54:57;6.20;99.90
19870;DHT22;10097;50.862;4.696;2023-03-14T13:57:24;6.30;99.90
19870;DHT22;10097;50.862;4.696;2023-03-14T14:00:01;6.50;99.90
19870;DHT22;10097;50.862;4.696;2023-03-14T14:02:33;6.60;99.90
19870;DHT22;10097;50.862;4.696;2023-03-14T14:04:59;7.00;99.90
19870;DHT22;10097;50.862;4.696;2023-03-14T14:07:25;7.20;99.90
19870;DHT22;10097;50.862;4.696;2023-03-14T14:09:53;7.50;99.90
19870;DHT22;10097;50.862;4.696;2023-03-14T14:12:26;7.60;99.90
19870;DHT22;10097;50.862;4.696;2023-03-14T14:17:36;8.00;99.90
19870;DHT22;10097;50.862;4.696;2023-03-14T14:20:06;8.20;99.90
19870;DHT22;10097;50.862;4.696;2023-03-14T14:22:32;8.40;99.90
19870;DHT22;10097;50.862;4.696;2023-03-14T14:24:59;8.30;99.90
19870;DHT22;10097;50.862;4.696;2023-03-14T14:27:37;8.50;99.90
19870;DHT22;10097;50.862;4.696;2023-03-14T14:30:24;8.70;99.90
19870;DHT22;10097;50.862;4.696;2023-03-14T14:32:51;8.90;99.90
19870;DHT22;10097;50.862;4.696;2023-03-14T14:35:24;8.90;99.90
19870;DHT22;10097;50.862;4.696;2023-03-14T14:37:50;9.10;99.90
19870;DHT22;10097;50.862;4.696;2023-03-14T14:40:17;9.30;99.90
19870;DHT22;10097;50.862;4.696;2023-03-14T14:42:44;9.50;99.90
19870;DHT22;10097;50.862;4.696;2023-03-14T14:45:16;9.60;99.90
19870;DHT22;10097;50.862;4.696;2023-03-14T14:48:06;9.60;99.90
19870;DHT22;10097;50.862;4.696;2023-03-14T14:50:36;9.70;99.90
19870;DHT22;10097;50.862;4.696;2023-03-14T14:58:49;9.30;99.90
19870;DHT22;10097;50.862;4.696;2023-03-14T15:01:21;8.90;99.90
19870;DHT22;10097;50.862;4.696;2023-03-14T15:03:51;8.70;99.90
19870;DHT22;10097;50.862;4.696;2023-03-14T15:06:18;8.20;99.90
19870;DHT22;10097;50.862;4.696;2023-03-14T15:08:46;7.70;99.90
19870;DHT22;10097;50.862;4.696;2023-03-14T15:11:18;7.00;99.90
19870;DHT22;10097;50.862;4.696;2023-03-14T15:13:44;6.60;99.90
19870;DHT22;10097;50.862;4.696;2023-03-14T15:16:11;6.30;99.90
19870;DHT22;10097;50.862;4.696;2023-03-14T15:18:37;6.00;99.90
19870;DHT22;10097;50.862;4.696;2023-03-14T15:21:03;6.10;99.90
19870;DHT22;10097;50.862;4.696;2023-03-14T15:23:29;5.80;99.90
19870;DHT22;10097;50.862;4.696;2023-03-14T15:25:55;5.80;99.90
19870;DHT22;10097;50.862;4.696;2023-03-14T15:28:22;5.80;99.90
19870;DHT22;10097;50.862;4.696;2023-03-14T15:30:50;6.00;99.90
19870;DHT22;10097;50.862;4.696;2023-03-14T15:33:17;6.10;99.90
19870;DHT22;10097;50.862;4.696;2023-03-14T15:35:43;6.40;99.90
19870;DHT22;10097;50.862;4.696;2023-03-14T15:38:14;6.50;99.90
19870;DHT22;10097;50.862;4.696;2023-03-14T15:40:40;6.80;99.90
19870;DHT22;10097;50.862;4.696;2023-03-14T15:43:06;6.90;99.90
19870;DHT22;10097;50.862;4.696;2023-03-14T15:45:32;7.10;99.90
19870;DHT22;10097;50.862;4.696;2023-03-14T15:47:58;7.20;99.90
19870;DHT22;10097;50.862;4.696;2023-03-14T15:50:23;7.40;99.90
19870;DHT22;10097;50.862;4.696;2023-03-14T15:52:51;7.50;99.90
19870;DHT22;10097;50.862;4.696;2023-03-14T15:55:17;7.60;99.90
19870;DHT22;10097;50.862;4.696;2023-03-14T15:57:43;7.60;99.90
19870;DHT22;10097;50.862;4.696;2023-03-14T16:00:15;7.70;99.90
19870;DHT22;10097;50.862;4.696;2023-03-14T16:02:43;7.60;99.90
19870;DHT22;10097;50.862;4.696;2023-03-14T16:05:11;7.70;99.90
19870;DHT22;10097;50.862;4.696;2023-03-14T16:07:37;7.80;99.90
19870;DHT22;10097;50.862;4.696;2023-03-14T16:10:03;7.50;99.90
19870;DHT22;10097;50.862;4.696;2023-03-14T16:12:30;7.50;99.90
19870;DHT22;10097;50.862;4.696;2023-03-14T16:14:56;7.40;99.90
19870;DHT22;10097;50.862;4.696;2023-03-14T16:17:22;7.50;99.90
19870;DHT22;10097;50.862;4.696;2023-03-14T16:19:47;7.40;99.90
19870;DHT22;10097;50.862;4.696;2023-03-14T16:22:13;7.20;99.90
19870;DHT22;10097;50.862;4.696;2023-03-14T16:24:39;7.10;99.90
19870;DHT22;10097;50.862;4.696;2023-03-14T16:27:04;7.00;99.90
19870;DHT22;10097;50.862;4.696;2023-03-14T16:29:30;6.80;99.90
19870;DHT22;10097;50.862;4.696;2023-03-14T16:31:56;6.70;99.90
19870;DHT22;10097;50.862;4.696;2023-03-14T16:34:21;6.70;99.90
19870;DHT22;10097;50.862;4.696;2023-03-14T16:36:47;6.70;99.90
19870;DHT22;10097;50.862;4.696;2023-03-14T16:39:16;6.70;99.90
19870;DHT22;10097;50.862;4.696;2023-03-14T16:41:42;6.70;99.90
19870;DHT22;10097;50.862;4.696;2023-03-14T16:44:08;6.60;99.90
19870;DHT22;10097;50.862;4.696;2023-03-14T16:46:34;6.60;99.90
19870;DHT22;10097;50.862;4.696;2023-03-14T16:49:01;6.70;99.90
19870;DHT22;10097;50.862;4.696;2023-03-14T16:51:26;6.70;99.90
19870;DHT22;10097;50.862;4.696;2023-03-14T16:53:52;6.60;99.90
19870;DHT22;10097;50.862;4.696;2023-03-14T16:56:18;6.50;99.90
19870;DHT22;10097;50.862;4.696;2023-03-14T16:58:44;6.60;99.90
19870;DHT22;10097;50.862;4.696;2023-03-14T17:01:12;6.50;99.90
19870;DHT22;10097;50.862;4.696;2023-03-14T17:03:43;6.60;99.90
19870;DHT22;10097;50.862;4.696;2023-03-14T17:06:15;6.60;99.90
19870;DHT22;10097;50.862;4.696;2023-03-14T17:08:41;6.50;99.90
19870;DHT22;10097;50.862;4.696;2023-03-14T17:11:07;6.50;99.90
19870;DHT22;10097;50.862;4.696;2023-03-14T17:13:33;6.50;99.90
19870;DHT22;10097;50.862;4.696;2023-03-14T17:15:59;6.80;99.90
19870;DHT22;10097;50.862;4.696;2023-03-14T17:18:27;6.80;99.90
19870;DHT22;10097;50.862;4.696;2023-03-14T17:20:54;6.80;99.90
19870;DHT22;10097;50.862;4.696;2023-03-14T17:23:21;6.70;99.90
19870;DHT22;10097;50.862;4.696;2023-03-14T17:25:48;6.60;99.90
19870;DHT22;10097;50.862;4.696;2023-03-14T17:28:18;6.50;99.90
19870;DHT22;10097;50.862;4.696;2023-03-14T17:30:44;6.50;99.90
19870;DHT22;10097;50.862;4.696;2023-03-14T17:33:11;6.50;99.90